Columbia, Maine
Current Conditions -  °F | °C
As of 12:35 AM on Wednesday 22 Oct 2014 (Local Time) from KBHB Reporting Station
Overcast Overcast  
Wind Chill: 50°   Ceiling: 900
Heat Index: 50°   Visibility: 9mi
Dew Point: 50°   Wind: 12mph
Humidity: 100%   Direction: 40°NE
Pressure: 30.15"   Gusts: 17mph
Location:  44.7099°N, 67.7366°W
Report Text: KBHB 220435Z AUTO 04010G15KT 9SM OVC009 10/10 A3015 RMK AO1 P0003
Loading
Personal Weather Stations






























Interactive Weather Map
Tropical Storm Tracking
New forecast layout! Learn more

10-Day Weather Forecast

Advertisements
Track Severe Weather on mobile